createdAt,value
2022-10-26T00:01:07.662Z,94.71
2022-10-26T00:03:36.996Z,94.77
2022-10-26T00:06:09.485Z,94.99
2022-10-26T00:08:37.845Z,94.77
2022-10-26T00:11:08.044Z,95.05
2022-10-26T00:13:36.767Z,95.35
2022-10-26T00:16:09.772Z,94.93
2022-10-26T00:18:37.909Z,95.68
2022-10-26T00:21:06.872Z,95.62
2022-10-26T00:23:36.657Z,95.46
2022-10-26T00:26:06.583Z,95.67
2022-10-26T00:28:34.544Z,95.89
2022-10-26T00:31:05.668Z,96.48
2022-10-26T00:33:33.996Z,96.48
2022-10-26T00:36:02.111Z,96.47
2022-10-26T00:38:30.429Z,96.05
2022-10-26T00:43:38.209Z,96.10
2022-10-26T00:46:10.062Z,96.28
2022-10-26T00:48:40.744Z,95.56
2022-10-26T00:51:12.208Z,95.28
2022-10-26T00:53:40.871Z,95.37
2022-10-26T00:56:09.721Z,94.90
2022-10-26T00:58:40.191Z,94.59
2022-10-26T01:01:11.841Z,95.79
2022-10-26T01:03:40.649Z,95.80
2022-10-26T01:06:10.728Z,96.30
2022-10-26T01:08:39.041Z,96.65
2022-10-26T01:11:07.261Z,96.61
2022-10-26T01:13:36.923Z,96.30
2022-10-26T01:16:26.861Z,95.18
2022-10-26T01:19:07.845Z,95.58
2022-10-26T01:21:55.032Z,95.99
2022-10-26T01:24:55.736Z,96.48
2022-10-26T01:27:31.590Z,96.90
2022-10-26T01:30:34.772Z,96.66
2022-10-26T01:33:22.030Z,96.93
2022-10-26T01:36:01.863Z,97.03
2022-10-26T01:38:34.290Z,97.92
2022-10-26T01:41:09.392Z,98.03
2022-10-26T01:43:41.908Z,97.96
2022-10-26T01:46:12.742Z,98.75
2022-10-26T01:48:43.680Z,98.46
2022-10-26T01:51:13.512Z,98.39
2022-10-26T01:53:46.055Z,98.69
2022-10-26T01:56:21.387Z,98.71
2022-10-26T01:59:33.064Z,98.33
2022-10-26T02:02:34.053Z,98.92
2022-10-26T02:05:20.331Z,98.99
2022-10-26T02:07:57.530Z,98.83
2022-10-26T02:10:37.433Z,99.11
2022-10-26T02:13:14.449Z,98.92
2022-10-26T02:15:53.217Z,98.91
2022-10-26T02:18:29.462Z,98.80
2022-10-26T02:21:04.330Z,98.79
2022-10-26T02:23:36.619Z,98.12
2022-10-26T02:26:09.506Z,98.47
2022-10-26T02:28:43.306Z,98.73
2022-10-26T02:31:15.211Z,98.86
2022-10-26T02:36:26.748Z,99.08
2022-10-26T02:38:56.943Z,98.93
2022-10-26T02:41:27.441Z,99.09
2022-10-26T02:44:03.107Z,98.98
2022-10-26T02:46:31.237Z,99.17
2022-10-26T02:49:01.887Z,98.57
2022-10-26T02:51:36.009Z,98.74
2022-10-26T02:54:13.724Z,99.24
2022-10-26T02:56:48.016Z,99.28
2022-10-26T02:59:17.721Z,99.45
2022-10-26T03:01:46.253Z,99.40
2022-10-26T03:04:15.697Z,99.48
2022-10-26T03:06:54.067Z,99.37
2022-10-26T03:09:24.791Z,99.47
2022-10-26T03:11:53.804Z,99.18
2022-10-26T03:14:23.078Z,99.36
2022-10-26T03:19:29.664Z,99.54
2022-10-26T03:21:57.516Z,99.76
2022-10-26T03:24:25.536Z,100.00
2022-10-26T03:26:54.489Z,99.76
2022-10-26T03:29:24.550Z,99.79
2022-10-26T03:31:54.679Z,99.94
2022-10-26T03:34:23.948Z,100.00
2022-10-26T03:36:51.815Z,100.00
2022-10-26T03:39:19.803Z,100.00
2022-10-26T03:41:48.013Z,100.00
2022-10-26T03:44:15.883Z,99.51
2022-10-26T03:46:43.870Z,99.40
2022-10-26T03:49:14.366Z,99.65
2022-10-26T03:51:43.748Z,99.65
2022-10-26T03:54:11.720Z,100.00
2022-10-26T03:56:39.604Z,99.92
2022-10-26T03:59:07.719Z,99.90
2022-10-26T04:01:35.600Z,99.82
2022-10-26T04:04:03.509Z,100.00
2022-10-26T04:06:31.377Z,100.00
2022-10-26T04:09:02.478Z,99.57
2022-10-26T04:11:30.408Z,99.09
2022-10-26T04:13:59.805Z,99.33
2022-10-26T04:16:31.112Z,99.32
2022-10-26T04:19:01.628Z,99.81
2022-10-26T04:21:29.627Z,99.90
2022-10-26T04:23:57.663Z,100.00
2022-10-26T04:26:27.239Z,100.00
2022-10-26T04:28:55.453Z,99.95
2022-10-26T04:31:23.509Z,99.63
2022-10-26T04:33:51.411Z,99.65
2022-10-26T04:36:19.256Z,100.00
2022-10-26T04:38:49.628Z,99.53
2022-10-26T04:41:17.773Z,100.00
2022-10-26T04:43:48.124Z,99.47
2022-10-26T04:46:16.820Z,99.33
2022-10-26T04:48:45.003Z,100.00
2022-10-26T04:51:13.169Z,100.00
2022-10-26T04:53:41.120Z,100.00
2022-10-26T04:56:10.441Z,99.88
2022-10-26T04:58:38.994Z,99.39
2022-10-26T05:01:09.642Z,100.00
2022-10-26T05:03:38.033Z,100.00
2022-10-26T05:06:08.737Z,100.00
2022-10-26T05:08:37.228Z,100.00
2022-10-26T05:11:05.370Z,100.00
2022-10-26T05:13:33.379Z,100.00
2022-10-26T05:16:03.138Z,100.00
2022-10-26T05:18:32.489Z,100.00
2022-10-26T05:21:00.441Z,99.86
2022-10-26T05:23:28.328Z,99.70
2022-10-26T05:25:56.589Z,100.00
2022-10-26T05:28:24.473Z,100.00
2022-10-26T05:30:52.339Z,100.00
2022-10-26T05:33:20.433Z,100.00
2022-10-26T05:35:49.673Z,100.00
2022-10-26T05:38:18.826Z,100.00
2022-10-26T05:40:50.177Z,100.00
2022-10-26T05:43:22.328Z,100.00
2022-10-26T05:45:51.518Z,100.00
2022-10-26T05:48:19.472Z,100.00
2022-10-26T05:50:47.599Z,100.00
2022-10-26T05:53:20.017Z,100.00
2022-10-26T05:55:51.233Z,100.00
2022-10-26T05:58:19.613Z,100.00
2022-10-26T06:01:02.619Z,100.00
2022-10-26T06:03:47.963Z,99.83
2022-10-26T06:06:16.441Z,100.00
2022-10-26T06:08:46.573Z,100.00
2022-10-26T06:11:15.165Z,100.00
2022-10-26T06:13:43.706Z,99.80
2022-10-26T06:16:27.391Z,99.66
2022-10-26T06:19:03.229Z,99.78
2022-10-26T06:21:42.976Z,99.31
2022-10-26T06:24:19.646Z,99.10
2022-10-26T06:26:54.812Z,99.23
2022-10-26T06:29:33.410Z,99.10
2022-10-26T06:32:02.415Z,99.51
2022-10-26T06:34:35.672Z,99.82
2022-10-26T06:37:05.099Z,99.31
2022-10-26T06:39:40.042Z,99.06
2022-10-26T06:42:10.256Z,98.76
2022-10-26T06:44:39.095Z,99.37
2022-10-26T06:47:11.110Z,99.43
2022-10-26T06:49:43.998Z,99.18
2022-10-26T06:52:17.422Z,98.63
2022-10-26T06:54:51.934Z,98.98
2022-10-26T06:57:22.698Z,98.56
2022-10-26T06:59:56.152Z,98.72
2022-10-26T07:02:26.832Z,98.72
2022-10-26T07:04:54.997Z,98.68
2022-10-26T07:07:26.248Z,99.21
2022-10-26T07:09:55.681Z,98.88
2022-10-26T07:12:29.621Z,98.25
2022-10-26T07:15:00.842Z,98.08
2022-10-26T07:17:30.561Z,97.88
2022-10-26T07:19:58.707Z,97.71
2022-10-26T07:22:26.915Z,98.19
2022-10-26T07:24:58.095Z,98.22
2022-10-26T07:27:29.012Z,97.93
2022-10-26T07:29:56.817Z,98.33
2022-10-26T07:32:24.637Z,98.05
2022-10-26T07:34:52.672Z,98.21
2022-10-26T07:37:20.667Z,97.22
2022-10-26T07:39:48.598Z,98.11
2022-10-26T07:42:17.918Z,97.95
2022-10-26T07:44:45.891Z,97.50
2022-10-26T07:47:13.827Z,97.62
2022-10-26T07:49:41.872Z,97.55
2022-10-26T07:52:11.112Z,97.11
2022-10-26T07:54:39.037Z,96.79
2022-10-26T07:57:07.033Z,96.96
2022-10-26T07:59:36.493Z,96.70
2022-10-26T08:02:04.792Z,95.80
2022-10-26T08:04:33.022Z,97.14
2022-10-26T08:07:00.850Z,96.52
2022-10-26T08:09:28.696Z,96.45
2022-10-26T08:11:56.693Z,96.86
2022-10-26T08:14:24.535Z,96.85
2022-10-26T08:16:53.752Z,96.10
2022-10-26T08:19:21.776Z,95.91
2022-10-26T08:21:49.684Z,95.12
2022-10-26T08:24:17.564Z,94.75
2022-10-26T08:26:45.433Z,94.17
2022-10-26T08:29:13.333Z,94.58
2022-10-26T08:31:41.172Z,94.55
2022-10-26T08:34:10.903Z,94.38
2022-10-26T08:36:38.803Z,94.31
2022-10-26T08:39:06.713Z,94.07
2022-10-26T08:41:38.805Z,93.39
2022-10-26T08:44:19.039Z,92.29
2022-10-26T08:46:53.578Z,92.74
2022-10-26T08:49:26.826Z,93.14
2022-10-26T08:51:59.048Z,92.61
2022-10-26T08:54:38.040Z,92.18
2022-10-26T08:57:16.501Z,92.23
2022-10-26T08:59:50.006Z,91.76
2022-10-26T09:02:19.831Z,90.91
2022-10-26T09:04:49.588Z,91.44
2022-10-26T09:07:31.255Z,89.95
2022-10-26T09:10:05.761Z,89.99
2022-10-26T09:12:46.396Z,90.33
2022-10-26T09:15:21.982Z,89.21
2022-10-26T09:17:59.652Z,90.00
2022-10-26T09:20:54.753Z,89.17
2022-10-26T09:23:54.589Z,88.57
2022-10-26T09:26:31.426Z,88.58
2022-10-26T09:29:04.046Z,87.82
2022-10-26T09:31:40.922Z,87.79
2022-10-26T09:34:21.739Z,87.00
2022-10-26T09:36:55.812Z,87.55
2022-10-26T09:39:32.802Z,87.93
2022-10-26T09:42:07.677Z,87.83
2022-10-26T09:44:40.656Z,87.69
2022-10-26T09:47:17.922Z,86.30
2022-10-26T09:49:49.803Z,86.16
2022-10-26T09:52:20.911Z,85.70
2022-10-26T09:54:48.862Z,85.81
2022-10-26T09:57:19.933Z,84.94
2022-10-26T09:59:51.854Z,85.28
2022-10-26T10:02:37.100Z,84.66
2022-10-26T10:05:45.814Z,84.22
2022-10-26T10:08:17.557Z,83.96
2022-10-26T10:11:03.260Z,83.43
2022-10-26T10:13:33.064Z,83.36
2022-10-26T10:16:07.887Z,83.33
2022-10-26T10:18:38.640Z,81.93
2022-10-26T10:21:08.120Z,82.30
2022-10-26T10:23:47.522Z,80.90
2022-10-26T10:26:15.615Z,81.94
2022-10-26T10:28:43.896Z,80.63
2022-10-26T10:31:22.644Z,79.61
2022-10-26T10:33:50.628Z,80.09
2022-10-26T10:36:21.876Z,79.25
2022-10-26T10:38:53.932Z,80.19
2022-10-26T10:41:27.795Z,80.28
2022-10-26T10:44:03.532Z,79.34
2022-10-26T10:46:31.553Z,79.62
2022-10-26T10:49:05.659Z,79.81
2022-10-26T10:51:39.993Z,79.96
2022-10-26T10:54:24.123Z,79.16
2022-10-26T10:56:55.240Z,78.49
2022-10-26T10:59:34.896Z,77.97
2022-10-26T11:02:32.500Z,78.64
2022-10-26T11:05:23.327Z,78.30
2022-10-26T11:07:59.142Z,78.28
2022-10-26T11:10:34.129Z,78.15
2022-10-26T11:13:07.453Z,77.55
2022-10-26T11:15:38.573Z,77.05
2022-10-26T11:18:13.334Z,77.00
2022-10-26T11:20:47.121Z,76.90
2022-10-26T11:23:21.281Z,76.92
2022-10-26T11:25:54.676Z,76.84
2022-10-26T11:28:34.316Z,76.66
2022-10-26T11:31:12.101Z,76.05
2022-10-26T11:33:45.156Z,75.99
2022-10-26T11:36:19.761Z,76.24
2022-10-26T11:38:58.695Z,75.89
2022-10-26T11:41:37.239Z,75.69
2022-10-26T11:44:15.147Z,76.54
2022-10-26T11:46:47.308Z,76.80
2022-10-26T11:49:22.867Z,76.99
2022-10-26T11:51:56.662Z,77.42
2022-10-26T11:54:31.042Z,77.05
2022-10-26T11:57:01.580Z,76.96
2022-10-26T11:59:33.486Z,75.88
2022-10-26T12:02:07.083Z,76.08
2022-10-26T12:04:38.559Z,75.49
2022-10-26T12:07:12.362Z,75.52
2022-10-26T12:09:44.655Z,75.25
2022-10-26T12:12:22.833Z,75.12
2022-10-26T12:14:57.619Z,75.53
2022-10-26T12:17:31.130Z,75.59
2022-10-26T12:20:06.016Z,75.83
2022-10-26T12:22:38.204Z,76.36
2022-10-26T12:25:14.674Z,76.10
2022-10-26T12:27:58.220Z,75.69
2022-10-26T12:30:31.068Z,76.29
2022-10-26T12:33:00.684Z,76.03
2022-10-26T12:35:38.962Z,75.13
2022-10-26T12:38:49.851Z,74.78
2022-10-26T12:41:27.990Z,74.23
2022-10-26T12:44:09.937Z,74.26
2022-10-26T12:46:42.156Z,74.04
2022-10-26T12:49:58.255Z,73.25
2022-10-26T12:52:36.481Z,73.32
2022-10-26T12:55:31.776Z,72.61
2022-10-26T12:58:21.587Z,71.62
2022-10-26T13:01:16.038Z,70.93
2022-10-26T13:03:54.924Z,70.58
2022-10-26T13:06:39.619Z,70.81
2022-10-26T13:09:16.347Z,71.37
2022-10-26T13:11:49.767Z,70.78
2022-10-26T13:14:23.052Z,71.15
2022-10-26T13:16:52.890Z,71.78
2022-10-26T13:19:31.902Z,71.31
2022-10-26T13:22:03.538Z,70.90
2022-10-26T13:24:33.815Z,71.38
2022-10-26T13:27:24.407Z,71.02
2022-10-26T13:30:19.891Z,70.62
2022-10-26T13:32:54.842Z,70.84
2022-10-26T13:35:25.790Z,71.22
2022-10-26T13:37:56.690Z,71.15
2022-10-26T13:40:29.460Z,70.83
2022-10-26T13:43:00.208Z,71.00
2022-10-26T13:45:30.884Z,71.46
2022-10-26T13:48:06.178Z,71.82
2022-10-26T13:50:46.717Z,72.23
2022-10-26T13:53:20.376Z,71.75
2022-10-26T13:55:52.644Z,72.41
2022-10-26T13:58:24.460Z,72.59
2022-10-26T14:01:13.137Z,72.22
2022-10-26T14:03:43.291Z,72.78
2022-10-26T14:06:18.185Z,72.50
2022-10-26T14:08:49.575Z,72.62
2022-10-26T14:11:21.350Z,72.72
2022-10-26T14:13:51.510Z,73.01
2022-10-26T14:16:23.925Z,73.04
2022-10-26T14:18:53.237Z,73.96
2022-10-26T14:21:23.539Z,74.05
2022-10-26T14:23:55.875Z,74.56
2022-10-26T14:26:26.163Z,74.44
2022-10-26T14:28:56.160Z,74.86
2022-10-26T14:31:29.793Z,74.56
2022-10-26T14:34:01.655Z,74.79
2022-10-26T14:36:35.988Z,74.21
2022-10-26T14:39:08.229Z,74.54
2022-10-26T14:41:37.364Z,74.26
2022-10-26T14:44:05.700Z,73.86
2022-10-26T14:46:36.652Z,73.21
2022-10-26T14:49:06.047Z,73.86
2022-10-26T14:51:36.966Z,73.90
2022-10-26T14:54:05.834Z,73.17
2022-10-26T14:56:41.354Z,73.78
2022-10-26T14:59:14.421Z,74.00
2022-10-26T15:01:55.237Z,73.91
2022-10-26T15:04:34.721Z,74.20
2022-10-26T15:07:09.870Z,74.51
2022-10-26T15:09:44.056Z,74.27
2022-10-26T15:12:36.379Z,73.85
2022-10-26T15:17:57.259Z,74.05
2022-10-26T15:20:29.072Z,74.15
2022-10-26T15:22:58.850Z,74.04
2022-10-26T15:25:29.320Z,74.45
2022-10-26T15:28:10.483Z,74.24
2022-10-26T15:30:39.621Z,74.84
2022-10-26T15:33:22.267Z,74.22
2022-10-26T15:35:51.710Z,74.97
2022-10-26T15:38:19.754Z,75.27
2022-10-26T15:40:47.770Z,75.37
2022-10-26T15:43:18.061Z,75.44
2022-10-26T15:45:49.309Z,75.98
2022-10-26T15:48:23.792Z,76.01
2022-10-26T15:50:53.217Z,76.51
2022-10-26T15:53:23.736Z,77.01
2022-10-26T15:55:53.964Z,77.38
2022-10-26T15:58:23.181Z,77.80
2022-10-26T16:00:51.085Z,78.09
2022-10-26T16:03:22.046Z,78.42
2022-10-26T16:05:54.949Z,78.80
2022-10-26T16:08:22.957Z,79.02
2022-10-26T16:10:51.583Z,79.79
2022-10-26T16:13:19.979Z,79.77
2022-10-26T16:15:48.391Z,80.63
2022-10-26T16:18:16.298Z,80.82
2022-10-26T16:20:47.182Z,81.34
2022-10-26T16:23:16.565Z,81.58
2022-10-26T16:25:46.476Z,81.75
2022-10-26T16:28:16.995Z,82.27
2022-10-26T16:30:45.815Z,82.08
2022-10-26T16:33:13.883Z,82.07
2022-10-26T16:35:42.053Z,82.16
2022-10-26T16:38:10.091Z,82.25
2022-10-26T16:40:42.781Z,82.10
2022-10-26T16:43:10.756Z,82.08
2022-10-26T16:45:40.881Z,82.21
2022-10-26T16:48:14.673Z,82.03
2022-10-26T16:50:42.482Z,82.39
2022-10-26T16:53:10.427Z,82.69
2022-10-26T16:55:39.953Z,82.78
2022-10-26T16:58:09.792Z,83.37
2022-10-26T17:00:38.321Z,84.06
2022-10-26T17:03:06.375Z,84.08
2022-10-26T17:05:34.210Z,84.74
2022-10-26T17:08:02.181Z,85.05
2022-10-26T17:10:30.256Z,85.37
2022-10-26T17:12:59.504Z,85.69
2022-10-26T17:15:29.050Z,86.13
2022-10-26T17:17:57.242Z,85.97
2022-10-26T17:20:25.148Z,86.63
2022-10-26T17:22:53.229Z,86.57
2022-10-26T17:25:21.273Z,86.88
2022-10-26T17:27:49.320Z,87.13
2022-10-26T17:30:18.772Z,87.26
2022-10-26T17:32:46.801Z,87.63
2022-10-26T17:35:16.868Z,87.79
2022-10-26T17:37:44.918Z,88.20
2022-10-26T17:40:13.893Z,88.11
2022-10-26T17:42:41.726Z,88.16
2022-10-26T17:45:10.877Z,88.48
2022-10-26T17:47:40.264Z,88.60
2022-10-26T17:50:09.259Z,88.68
2022-10-26T17:52:37.160Z,88.56
2022-10-26T17:55:05.662Z,88.60
2022-10-26T17:57:34.123Z,88.74
2022-10-26T18:00:02.073Z,88.87
2022-10-26T18:02:30.119Z,89.10
2022-10-26T18:05:01.507Z,89.06
2022-10-26T18:07:31.804Z,88.77
2022-10-26T18:10:13.740Z,87.99
2022-10-26T18:12:47.581Z,87.54
2022-10-26T18:15:15.550Z,87.51
2022-10-26T18:17:45.170Z,86.91
2022-10-26T18:20:14.659Z,86.41
2022-10-26T18:22:42.659Z,86.52
2022-10-26T18:25:10.972Z,86.29
2022-10-26T18:27:38.931Z,86.02
2022-10-26T18:30:08.049Z,85.86
2022-10-26T18:32:36.000Z,85.50
2022-10-26T18:35:03.955Z,85.61
2022-10-26T18:37:33.133Z,85.13
2022-10-26T18:40:01.082Z,85.63
2022-10-26T18:42:29.047Z,85.59
2022-10-26T18:45:00.910Z,85.51
2022-10-26T18:47:30.665Z,85.02
2022-10-26T18:49:59.023Z,84.50
2022-10-26T18:52:27.915Z,85.02
2022-10-26T18:54:57.317Z,85.00
2022-10-26T18:57:27.138Z,85.45
2022-10-26T18:59:55.284Z,85.71
2022-10-26T19:02:23.613Z,86.09
2022-10-26T19:04:53.673Z,86.19
2022-10-26T19:07:21.543Z,86.15
2022-10-26T19:09:49.501Z,86.01
2022-10-26T19:12:18.694Z,85.61
2022-10-26T19:14:46.545Z,86.20
2022-10-26T19:17:14.627Z,86.65
2022-10-26T19:19:42.597Z,86.76
2022-10-26T19:22:11.298Z,87.47
2022-10-26T19:24:39.249Z,87.75
2022-10-26T19:27:07.275Z,88.05
2022-10-26T19:29:36.912Z,88.34
2022-10-26T19:32:05.048Z,88.72
2022-10-26T19:34:32.909Z,89.20
2022-10-26T19:37:00.857Z,89.93
2022-10-26T19:39:29.027Z,89.88
2022-10-26T19:41:56.906Z,90.43
2022-10-26T19:44:25.640Z,90.70
2022-10-26T19:46:55.130Z,90.47
2022-10-26T19:49:23.253Z,91.24
2022-10-26T19:51:51.294Z,90.53
2022-10-26T19:54:19.301Z,90.99
2022-10-26T19:56:47.273Z,90.86
2022-10-26T19:59:15.416Z,90.83
2022-10-26T20:01:43.552Z,90.79
2022-10-26T20:04:13.282Z,91.54
2022-10-26T20:06:41.276Z,91.95
2022-10-26T20:09:09.383Z,92.56
2022-10-26T20:11:42.373Z,92.74
2022-10-26T20:14:13.826Z,92.62
2022-10-26T20:16:42.080Z,93.04
2022-10-26T20:19:10.310Z,93.06
2022-10-26T20:21:39.719Z,93.29
2022-10-26T20:24:10.317Z,93.32
2022-10-26T20:26:38.473Z,93.64
2022-10-26T20:29:06.463Z,93.59
2022-10-26T20:31:34.465Z,94.10
2022-10-26T20:34:02.388Z,94.52
2022-10-26T20:36:30.404Z,94.54
2022-10-26T20:39:00.327Z,94.92
2022-10-26T20:41:28.877Z,94.49
2022-10-26T20:43:58.102Z,94.57
2022-10-26T20:46:28.384Z,94.98
2022-10-26T20:48:56.968Z,95.05
2022-10-26T20:51:56.765Z,94.72
2022-10-26T20:54:38.082Z,95.33
2022-10-26T20:57:09.022Z,95.29
2022-10-26T20:59:41.983Z,95.80
2022-10-26T21:02:11.557Z,95.97
2022-10-26T21:04:39.596Z,96.35
2022-10-26T21:07:07.621Z,96.77
2022-10-26T21:09:37.020Z,96.58
2022-10-26T21:12:05.759Z,97.04
2022-10-26T21:14:39.613Z,97.22
2022-10-26T21:17:07.704Z,97.80
2022-10-26T21:19:35.503Z,97.10
2022-10-26T21:22:03.889Z,97.72
2022-10-26T21:24:32.143Z,97.96
2022-10-26T21:27:01.514Z,97.72
2022-10-26T21:29:29.505Z,98.06
2022-10-26T21:31:59.037Z,97.63
2022-10-26T21:34:26.869Z,97.92
2022-10-26T21:36:54.839Z,97.67
2022-10-26T21:39:22.672Z,97.92
2022-10-26T21:41:50.496Z,98.38
2022-10-26T21:44:38.871Z,98.27
2022-10-26T21:47:07.867Z,98.71
2022-10-26T21:49:35.786Z,98.34
2022-10-26T21:52:03.779Z,98.56
2022-10-26T21:54:31.606Z,99.00
2022-10-26T21:56:59.565Z,99.00
2022-10-26T21:59:28.717Z,99.40
2022-10-26T22:01:56.685Z,99.98
2022-10-26T22:04:24.825Z,100.00
2022-10-26T22:06:52.763Z,100.00
2022-10-26T22:09:20.771Z,100.00
2022-10-26T22:11:48.718Z,100.00
2022-10-26T22:14:18.225Z,100.00
2022-10-26T22:16:47.501Z,100.00
2022-10-26T22:19:15.511Z,100.00
2022-10-26T22:21:43.525Z,100.00
2022-10-26T22:24:11.434Z,100.00
2022-10-26T22:26:39.846Z,100.00
2022-10-26T22:29:08.073Z,100.00
2022-10-26T22:31:38.261Z,100.00
2022-10-26T22:34:09.925Z,100.00
2022-10-26T22:36:37.873Z,100.00
2022-10-26T22:39:06.003Z,100.00
2022-10-26T22:41:34.065Z,100.00
2022-10-26T22:44:01.885Z,100.00
2022-10-26T22:46:29.855Z,100.00
2022-10-26T22:48:59.883Z,100.00
2022-10-26T22:51:31.953Z,100.00
2022-10-26T22:54:01.750Z,100.00
2022-10-26T22:56:30.614Z,100.00
2022-10-26T22:58:58.666Z,100.00
2022-10-26T23:01:28.752Z,100.00
2022-10-26T23:03:56.685Z,100.00
2022-10-26T23:06:26.722Z,100.00
2022-10-26T23:08:56.237Z,100.00
2022-10-26T23:11:26.741Z,100.00
2022-10-26T23:13:55.242Z,100.00
2022-10-26T23:16:23.323Z,100.00
2022-10-26T23:18:53.238Z,100.00
2022-10-26T23:21:22.675Z,100.00
2022-10-26T23:23:51.022Z,100.00
2022-10-26T23:26:21.907Z,100.00
2022-10-26T23:28:50.350Z,100.00
2022-10-26T23:31:20.759Z,100.00
2022-10-26T23:33:51.064Z,100.00
2022-10-26T23:36:19.313Z,100.00
2022-10-26T23:38:47.913Z,100.00
2022-10-26T23:41:16.371Z,100.00
2022-10-26T23:43:45.580Z,100.00
2022-10-26T23:46:13.778Z,100.00
2022-10-26T23:48:41.648Z,100.00
2022-10-26T23:51:09.459Z,100.00
2022-10-26T23:53:37.406Z,100.00
2022-10-26T23:56:05.698Z,100.00
2022-10-26T23:58:33.508Z,100.00
